Time;durP1;ratioP1;P1;durP2;ratioP2;P2;SDS_P1;SDS_P2;PMS_P1;PMS_P2;Temp;Humidity;BMP_temperature;BMP_pressure;BME280_temperature;BME280_humidity;BME280_pressure;Samples;Min_cycle;Max_cycle;Signal;HPM_P1;HPM_P2
2022/07/05 00:01:58;;;;;;;3.13;1.50;;;;;;;18.79;63.92;98366.38;5053513;28;20287;-67
2022/07/05 00:04:24;;;;;;;1.83;1.43;;;;;;;18.80;64.60;98359.91;5053519;28;20209;-68
2022/07/05 00:09:35;;;;;;;2.03;1.50;;;;;;;18.64;65.43;98360.94;5053412;28;20224;-67
2022/07/05 00:12:02;;;;;;;2.10;1.63;;;;;;;18.60;64.57;98363.31;5053149;28;20291;-68
2022/07/05 00:14:28;;;;;;;2.07;1.50;;;;;;;18.70;64.47;98363.41;5053353;28;20205;-68
2022/07/05 00:16:55;;;;;;;2.47;2.00;;;;;;;18.66;65.90;98361.47;5053679;28;20205;-67
2022/07/05 00:19:21;;;;;;;2.13;1.70;;;;;;;18.67;65.05;98357.69;5053067;28;20315;-67
2022/07/05 00:21:48;;;;;;;5.77;1.90;;;;;;;18.63;64.99;98357.44;5053290;28;20205;-68
2022/07/05 00:24:14;;;;;;;2.47;1.70;;;;;;;18.56;65.83;98361.44;5053049;28;20205;-67
2022/07/05 00:26:40;;;;;;;4.23;1.70;;;;;;;18.59;65.11;98361.72;5053501;28;20216;-67
2022/07/05 00:29:07;;;;;;;3.40;2.10;;;;;;;18.58;65.46;98364.66;5053153;28;20316;-67
2022/07/05 00:31:33;;;;;;;2.87;1.97;;;;;;;18.34;66.65;98360.78;5053050;28;20201;-67
2022/07/05 00:34:00;;;;;;;3.07;2.00;;;;;;;18.32;67.93;98362.91;5053233;28;20287;-67
2022/07/05 00:36:26;;;;;;;1.70;1.60;;;;;;;18.22;67.76;98352.88;5052856;28;20296;-67
2022/07/05 00:38:52;;;;;;;3.27;1.93;;;;;;;18.16;68.39;98356.63;5053156;28;20308;-67
2022/07/05 00:41:19;;;;;;;2.40;1.90;;;;;;;18.08;67.53;98354.41;5053568;28;20523;-67
2022/07/05 00:44:01;;;;;;;1.90;1.60;;;;;;;18.13;68.01;98357.13;5052838;28;20211;-67
2022/07/05 00:46:28;;;;;;;3.23;1.60;;;;;;;18.04;67.80;98356.00;5053123;28;20284;-67
2022/07/05 00:48:55;;;;;;;3.40;1.70;;;;;;;18.11;67.41;98356.59;5052682;28;20229;-67
2022/07/05 00:51:22;;;;;;;4.13;1.83;;;;;;;17.97;67.94;98352.69;5053027;28;20221;-67
2022/07/05 00:53:50;;;;;;;3.17;1.90;;;;;;;17.89;68.65;98347.00;5052857;28;20205;-68
2022/07/05 00:56:17;;;;;;;4.33;1.70;;;;;;;17.82;69.53;98351.81;5053011;28;20212;-67
2022/07/05 00:58:43;;;;;;;2.50;1.97;;;;;;;17.78;69.66;98358.75;5052915;28;20225;-67
2022/07/05 01:01:10;;;;;;;2.63;1.90;;;;;;;17.79;70.11;98353.13;5052980;28;20297;-67
2022/07/05 01:03:37;;;;;;;2.70;1.70;;;;;;;17.78;68.34;98354.19;5053782;28;20205;-68
2022/07/05 01:06:07;;;;;;;2.50;1.90;;;;;;;17.75;68.48;98356.56;5052596;28;20644;-67
2022/07/05 01:08:39;;;;;;;2.07;1.80;;;;;;;17.72;69.00;98349.00;5052865;28;20229;-67
2022/07/05 01:11:07;;;;;;;2.23;1.70;;;;;;;17.76;69.18;98359.03;5053074;28;20316;-68
2022/07/05 01:13:35;;;;;;;2.50;1.63;;;;;;;17.74;69.45;98352.28;5052473;28;20212;-68
2022/07/05 01:16:02;;;;;;;3.47;1.53;;;;;;;17.72;69.15;98365.16;5053300;28;20731;-68
2022/07/05 01:18:29;;;;;;;3.10;1.70;;;;;;;17.71;69.44;98363.53;5052485;28;20244;-67
2022/07/05 01:20:57;;;;;;;3.00;1.70;;;;;;;17.72;68.33;98360.59;5053034;28;20201;-68
2022/07/05 01:23:23;;;;;;;2.20;1.50;;;;;;;17.80;67.87;98362.00;5054302;28;20296;-68
2022/07/05 01:25:52;;;;;;;3.37;1.70;;;;;;;17.83;67.33;98362.28;5056149;28;20201;-68
2022/07/05 01:28:19;;;;;;;3.67;1.37;;;;;;;17.93;64.76;98359.69;5055905;28;20252;-68
2022/07/05 01:30:45;;;;;;;2.70;1.60;;;;;;;17.84;66.77;98363.94;5055923;28;20323;-68
2022/07/05 01:33:12;;;;;;;3.20;1.53;;;;;;;17.81;66.65;98369.00;5055909;28;20292;-68
2022/07/05 01:35:38;;;;;;;2.30;1.63;;;;;;;17.76;67.17;98372.47;5056148;28;20301;-67
2022/07/05 01:38:05;;;;;;;3.20;1.70;;;;;;;17.68;67.76;98366.72;5056083;28;20232;-67
2022/07/05 01:40:32;;;;;;;1.57;1.47;;;;;;;17.64;68.95;98366.44;5056087;28;20312;-67
2022/07/05 01:42:59;;;;;;;1.53;1.33;;;;;;;17.70;66.64;98364.59;5056106;28;20616;-67
2022/07/05 01:45:41;;;;;;;2.77;1.60;;;;;;;17.76;66.41;98372.47;5056451;28;20208;-68
2022/07/05 01:48:16;;;;;;;2.77;1.57;;;;;;;17.84;65.72;98361.25;5055828;28;20291;-68
2022/07/05 01:50:50;;;;;;;1.43;1.30;;;;;;;17.82;66.22;98360.66;5055511;28;20675;-67
2022/07/05 01:53:24;;;;;;;1.67;1.57;;;;;;;17.76;66.92;98368.94;5055889;28;20190;-67
2022/07/05 01:55:51;;;;;;;2.30;1.50;;;;;;;17.79;65.72;98363.91;5055803;28;20288;-67
2022/07/05 01:58:18;;;;;;;2.53;1.90;;;;;;;17.76;66.81;98377.03;5055742;28;20243;-67
2022/07/05 02:00:48;;;;;;;2.23;1.60;;;;;;;17.63;67.81;98369.38;5055717;28;20201;-68
2022/07/05 02:03:16;;;;;;;1.83;1.60;;;;;;;17.53;68.62;98378.19;5055723;28;20272;-67
2022/07/05 02:05:44;;;;;;;1.50;1.40;;;;;;;17.51;68.86;98369.53;5055627;28;20282;-67
2022/07/05 02:08:11;;;;;;;2.03;1.60;;;;;;;17.65;68.43;98368.06;5055459;28;20225;-67
2022/07/05 02:10:39;;;;;;;4.20;1.73;;;;;;;17.65;67.57;98370.75;5055666;28;20235;-67
2022/07/05 02:13:06;;;;;;;2.07;1.60;;;;;;;17.57;68.15;98368.53;5055482;28;20296;-67
2022/07/05 02:15:34;;;;;;;5.53;1.80;;;;;;;17.48;69.64;98364.69;5055078;28;20644;-68
2022/07/05 02:18:04;;;;;;;2.40;1.87;;;;;;;17.42;69.50;98363.00;5055210;28;20300;-67
2022/07/05 02:20:32;;;;;;;2.50;2.03;;;;;;;17.31;71.02;98368.50;5055299;28;20205;-68
2022/07/05 02:22:59;;;;;;;2.20;1.70;;;;;;;17.15;71.46;98364.84;5055310;28;20209;-67
2022/07/05 02:25:26;;;;;;;1.80;1.70;;;;;;;17.11;72.53;98363.78;5055180;28;20201;-67
2022/07/05 02:27:53;;;;;;;4.13;1.70;;;;;;;17.10;72.58;98362.13;5054888;28;20300;-68
2022/07/05 02:30:20;;;;;;;2.53;1.80;;;;;;;17.03;72.44;98363.38;5055067;28;20312;-67
2022/07/05 02:32:47;;;;;;;3.67;1.90;;;;;;;16.92;73.08;98358.97;5055097;28;20207;-67
2022/07/05 02:35:14;;;;;;;3.73;2.07;;;;;;;16.80;74.57;98359.13;5054659;28;20204;-67
2022/07/05 02:37:40;;;;;;;2.43;2.10;;;;;;;16.76;74.85;98363.38;5054973;28;20205;-68
2022/07/05 02:40:12;;;;;;;3.50;2.10;;;;;;;16.74;75.25;98359.31;5054893;28;20252;-67
2022/07/05 02:42:39;;;;;;;1.80;1.50;;;;;;;16.81;74.45;98366.09;5055782;28;20292;-67
2022/07/05 02:45:07;;;;;;;3.97;2.20;;;;;;;16.72;74.63;98364.09;5054751;28;20212;-67
2022/07/05 02:47:34;;;;;;;2.43;2.00;;;;;;;16.67;74.52;98361.34;5054686;28;20292;-67
2022/07/05 02:50:11;;;;;;;2.57;1.70;;;;;;;16.71;75.33;98367.84;5054589;28;20312;-67
2022/07/05 02:52:38;;;;;;;2.53;2.10;;;;;;;16.62;75.28;98374.72;5054738;28;20195;-68
2022/07/05 02:55:05;;;;;;;3.50;1.77;;;;;;;16.63;74.04;98371.78;5054681;28;20208;-67
2022/07/05 02:57:31;;;;;;;4.27;1.83;;;;;;;16.64;74.65;98372.63;5054112;28;20672;-68
2022/07/05 02:59:58;;;;;;;3.50;1.67;;;;;;;16.61;74.95;98381.94;5054494;28;20251;-67
2022/07/05 03:02:25;;;;;;;3.00;1.90;;;;;;;16.62;75.73;98380.09;5054507;28;20205;-67
2022/07/05 03:04:51;;;;;;;2.43;1.80;;;;;;;16.66;75.95;98381.22;5054143;28;20210;-67
2022/07/05 03:07:18;;;;;;;2.57;1.90;;;;;;;16.62;75.74;98377.41;5053961;28;20745;-67
2022/07/05 03:09:44;;;;;;;2.27;1.90;;;;;;;16.64;75.17;98381.47;5054178;28;20225;-67
2022/07/05 03:12:10;;;;;;;4.20;1.67;;;;;;;16.57;75.92;98378.16;5054010;28;20312;-68
2022/07/05 03:14:37;;;;;;;4.37;1.90;;;;;;;16.60;76.14;98377.66;5054069;28;20205;-67
2022/07/05 03:17:03;;;;;;;2.17;1.97;;;;;;;16.59;76.28;98383.25;5053537;28;20739;-67
2022/07/05 03:19:30;;;;;;;2.70;1.70;;;;;;;16.57;75.42;98382.72;5053412;28;20241;-67
2022/07/05 03:21:56;;;;;;;2.00;1.80;;;;;;;16.60;74.61;98382.22;5053828;28;20201;-68
2022/07/05 03:24:23;;;;;;;2.13;1.93;;;;;;;16.53;75.37;98381.59;5053931;28;20209;-67
2022/07/05 03:26:49;;;;;;;4.87;1.60;;;;;;;16.56;76.59;98386.47;5053472;28;20213;-67
2022/07/05 03:29:15;;;;;;;3.03;1.90;;;;;;;16.56;77.01;98386.47;5053776;28;20315;-67
2022/07/05 03:31:42;;;;;;;3.00;1.80;;;;;;;16.56;75.40;98379.19;5053747;28;20247;-67
2022/07/05 03:34:08;;;;;;;2.13;1.73;;;;;;;16.50;76.01;98377.53;5053531;28;20216;-67
2022/07/05 03:36:35;;;;;;;2.57;1.80;;;;;;;16.53;76.95;98384.28;5053618;28;20280;-67
2022/07/05 03:39:01;;;;;;;2.13;1.83;;;;;;;16.48;76.19;98389.56;5053048;28;20229;-68
2022/07/05 03:41:28;;;;;;;2.30;1.67;;;;;;;16.52;76.32;98391.50;5053436;28;20201;-67
2022/07/05 03:43:54;;;;;;;1.70;1.60;;;;;;;16.41;76.54;98384.38;5053528;28;20211;-68
2022/07/05 03:46:20;;;;;;;3.73;1.70;;;;;;;16.46;75.74;98402.44;5052973;28;20615;-67
2022/07/05 03:48:47;;;;;;;1.73;1.53;;;;;;;16.44;76.20;98396.50;5053078;28;20314;-67
2022/07/05 03:51:13;;;;;;;4.03;1.70;;;;;;;16.42;75.80;98396.72;5053537;28;20225;-68
2022/07/05 03:53:39;;;;;;;2.90;1.80;;;;;;;16.36;75.63;98410.28;5053582;28;20213;-67
2022/07/05 03:56:06;;;;;;;2.13;1.53;;;;;;;16.34;75.18;98407.88;5053181;28;20217;-67
2022/07/05 03:58:32;;;;;;;2.70;1.60;;;;;;;16.32;74.99;98409.16;5053372;28;20321;-67
2022/07/05 04:00:59;;;;;;;3.77;1.80;;;;;;;16.34;76.00;98410.56;5053353;28;20201;-67
2022/07/05 04:03:25;;;;;;;4.10;1.70;;;;;;;16.28;75.91;98421.47;5052822;28;20237;-68
2022/07/05 04:05:52;;;;;;;1.73;1.60;;;;;;;16.34;75.28;98415.94;5053101;28;20296;-67
2022/07/05 04:08:18;;;;;;;2.30;1.70;;;;;;;16.36;75.04;98424.53;5052851;28;20726;-67
2022/07/05 04:10:44;;;;;;;2.70;1.53;;;;;;;16.33;76.02;98430.38;5053171;28;20312;-67
2022/07/05 04:13:11;;;;;;;3.13;1.80;;;;;;;16.37;75.66;98436.88;5053354;28;20216;-67
2022/07/05 04:15:37;;;;;;;2.97;1.83;;;;;;;16.30;76.85;98441.63;5053189;28;20293;-67
2022/07/05 04:18:04;;;;;;;3.40;1.87;;;;;;;16.34;76.69;98441.94;5052843;28;20248;-68
2022/07/05 04:20:30;;;;;;;4.50;1.97;;;;;;;16.44;77.07;98442.94;5052812;28;20647;-70
2022/07/05 04:22:57;;;;;;;3.17;2.00;;;;;;;16.51;74.50;98448.13;5052568;28;20733;-68
2022/07/05 04:25:23;;;;;;;3.77;1.97;;;;;;;16.54;75.00;98451.13;5052695;28;20209;-68
2022/07/05 04:27:52;;;;;;;2.40;1.90;;;;;;;16.59;73.95;98445.81;5052526;28;20213;-68
2022/07/05 04:30:20;;;;;;;2.97;1.60;;;;;;;16.67;74.51;98447.28;5053018;28;20562;-68
2022/07/05 04:32:47;;;;;;;3.07;1.43;;;;;;;16.75;73.60;98444.16;5053014;28;20205;-68
2022/07/05 04:35:14;;;;;;;1.77;1.43;;;;;;;16.84;72.52;98443.50;5052692;28;20233;-68
2022/07/05 04:37:42;;;;;;;3.83;1.63;;;;;;;16.87;72.19;98440.28;5052889;28;20205;-68
2022/07/05 04:40:11;;;;;;;2.20;1.67;;;;;;;16.92;71.89;98451.09;5052428;28;20316;-68
2022/07/05 04:42:38;;;;;;;2.83;1.50;;;;;;;16.97;71.64;98447.66;5052584;28;20303;-68
2022/07/05 04:45:06;;;;;;;1.60;1.50;;;;;;;16.96;71.62;98446.84;5052224;28;20209;-68
2022/07/05 04:47:33;;;;;;;2.23;1.60;;;;;;;17.05;72.61;98448.03;5052228;28;20308;-68
2022/07/05 04:50:00;;;;;;;3.23;1.50;;;;;;;17.14;71.33;98451.13;5052183;28;20370;-68
2022/07/05 04:52:27;;;;;;;2.00;1.70;;;;;;;17.29;65.86;98457.44;5052253;28;20715;-68
2022/07/05 04:54:54;;;;;;;1.97;1.23;;;;;;;17.43;64.40;98457.91;5052107;28;20209;-68
2022/07/05 04:57:21;;;;;;;2.40;1.60;;;;;;;17.52;64.31;98459.09;5052522;28;20781;-68
2022/07/05 04:59:47;;;;;;;1.87;1.40;;;;;;;17.40;64.64;98466.47;5056111;28;20653;-68
2022/07/05 05:02:14;;;;;;;3.10;1.50;;;;;;;17.58;63.80;98458.88;5056000;28;20198;-68
2022/07/05 05:04:40;;;;;;;2.43;1.40;;;;;;;17.60;64.46;98464.81;5056095;28;20295;-68
2022/07/05 05:07:06;;;;;;;3.33;1.20;;;;;;;17.67;62.85;98451.16;5056273;28;20288;-68
2022/07/05 05:09:33;;;;;;;2.23;1.40;;;;;;;17.81;62.73;98463.94;5055973;28;20227;-68
2022/07/05 05:11:59;;;;;;;4.20;1.37;;;;;;;17.87;63.45;98454.84;5055543;28;20687;-67
2022/07/05 05:14:26;;;;;;;2.63;1.33;;;;;;;18.40;60.24;98459.34;5055398;28;20299;-67
2022/07/05 05:16:52;;;;;;;2.60;1.60;;;;;;;18.45;59.91;98453.97;5055444;28;20333;-67
2022/07/05 05:19:18;;;;;;;3.80;1.50;;;;;;;18.71;59.55;98456.59;5055283;28;20264;-67
2022/07/05 05:21:45;;;;;;;4.03;1.60;;;;;;;19.02;58.81;98454.84;5055564;28;20211;-67
2022/07/05 05:24:11;;;;;;;6.93;1.60;;;;;;;19.84;56.14;98463.75;5055440;28;20220;-67
2022/07/05 05:26:38;;;;;;;2.27;1.20;;;;;;;20.20;54.02;98457.31;5055298;28;20324;-67
2022/07/05 05:29:04;;;;;;;2.20;1.47;;;;;;;20.45;55.44;98459.19;5054721;28;20237;-67
2022/07/05 05:31:30;;;;;;;2.60;1.40;;;;;;;20.10;54.84;98459.19;5055462;28;20229;-68
2022/07/05 05:33:57;;;;;;;2.67;1.50;;;;;;;19.51;56.45;98462.31;5055234;28;20208;-68
2022/07/05 05:36:23;;;;;;;2.83;1.80;;;;;;;19.53;56.42;98459.34;5054754;28;20654;-68
2022/07/05 05:38:49;;;;;;;3.03;1.40;;;;;;;19.81;55.71;98466.16;5055281;28;20319;-67
2022/07/05 05:41:16;;;;;;;2.70;1.30;;;;;;;19.20;57.13;98474.06;5055269;28;20197;-67
2022/07/05 05:43:42;;;;;;;5.43;1.63;;;;;;;19.21;57.53;98462.22;5054501;28;20649;-67
2022/07/05 05:46:09;;;;;;;5.10;1.63;;;;;;;19.46;56.81;98465.00;5055589;28;20201;-67
2022/07/05 05:48:35;;;;;;;3.30;1.63;;;;;;;19.59;56.83;98463.72;5055002;28;20680;-67
2022/07/05 05:51:02;;;;;;;6.17;1.63;;;;;;;19.84;56.24;98462.94;5055291;28;20311;-67
2022/07/05 05:53:28;;;;;;;3.40;1.70;;;;;;;19.84;55.20;98471.03;5054798;28;20216;-68
2022/07/05 05:55:55;;;;;;;4.07;1.63;;;;;;;19.63;54.54;98460.19;5054551;28;20548;-67
2022/07/05 05:58:23;;;;;;;4.17;1.47;;;;;;;19.85;56.00;98473.44;5055052;28;20225;-67
2022/07/05 06:00:52;;;;;;;3.00;1.50;;;;;;;19.71;53.50;98475.03;5055156;28;20231;-67
2022/07/05 06:03:23;;;;;;;3.93;1.50;;;;;;;19.91;53.58;98468.88;5055076;28;20231;-67
2022/07/05 06:05:49;;;;;;;1.77;1.23;;;;;;;19.78;50.91;98479.09;5054971;28;20201;-68
2022/07/05 06:08:16;;;;;;;2.33;1.20;;;;;;;19.77;51.43;98478.56;5053906;28;20221;-67
2022/07/05 06:10:43;;;;;;;5.13;1.33;;;;;;;19.52;51.98;98477.44;5054428;28;20300;-67
2022/07/05 06:13:11;;;;;;;5.87;1.40;;;;;;;19.76;52.76;98477.75;5054119;28;20279;-67
2022/07/05 06:15:38;;;;;;;4.93;1.60;;;;;;;19.87;53.33;98487.50;5054252;28;20205;-70
2022/07/05 06:18:05;;;;;;;2.27;1.43;;;;;;;20.05;54.42;98481.59;5066422;28;20288;-69
2022/07/05 06:20:34;;;;;;;2.80;1.20;;;;;;;19.93;52.49;98485.63;5074528;28;20189;-72
2022/07/05 06:23:01;;;;;;;3.47;1.50;;;;;;;19.89;51.67;98489.94;5074086;28;20699;-70
2022/07/05 06:25:28;;;;;;;2.50;1.63;;;;;;;20.08;52.18;98491.03;5074350;28;20291;-70
2022/07/05 06:28:03;;;;;;;4.87;1.60;;;;;;;20.34;54.94;98492.69;5074552;28;20572;-70
2022/07/05 06:30:32;;;;;;;3.10;1.30;;;;;;;20.40;52.76;98488.91;5074264;28;20659;-70
2022/07/05 06:32:59;;;;;;;4.13;1.20;;;;;;;20.37;52.69;98486.72;5073943;28;20240;-70
2022/07/05 06:35:26;;;;;;;2.37;1.40;;;;;;;20.58;52.29;98491.84;5074151;28;20204;-70
2022/07/05 06:37:59;;;;;;;1.63;1.23;;;;;;;20.27;50.88;98495.66;5073992;28;20215;-70
2022/07/05 06:40:28;;;;;;;1.60;1.20;;;;;;;20.45;51.33;98497.81;5073849;28;20555;-70
2022/07/05 06:42:56;;;;;;;2.60;1.67;;;;;;;20.37;50.45;98497.53;5073950;28;20663;-70
2022/07/05 06:45:23;;;;;;;1.97;1.33;;;;;;;20.61;52.46;98495.91;5074957;28;20232;-70
2022/07/05 06:48:18;;;;;;;3.30;1.40;;;;;;;20.71;51.24;98493.97;5073686;28;20670;-70
2022/07/05 06:50:45;;;;;;;3.20;1.40;;;;;;;20.82;50.77;98495.59;5061100;28;20211;-69
2022/07/05 06:53:12;;;;;;;4.73;1.50;;;;;;;20.71;50.91;98504.78;5073959;28;20250;-70
2022/07/05 06:55:43;;;;;;;3.20;1.30;;;;;;;20.96;51.32;98495.84;5074186;28;20216;-70
2022/07/05 06:58:10;;;;;;;5.53;1.57;;;;;;;20.92;52.16;98501.00;5073914;28;20224;-70
2022/07/05 07:00:37;;;;;;;1.60;1.30;;;;;;;21.22;50.41;98500.09;5074187;28;20266;-70
2022/07/05 07:03:03;;;;;;;3.13;1.40;;;;;;;21.19;50.35;98500.66;5073195;28;20239;-70
2022/07/05 07:05:30;;;;;;;5.27;1.60;;;;;;;20.73;49.03;98515.34;5074212;28;20210;-71
2022/07/05 07:10:40;;;;;;;2.97;1.30;;;;;;;20.87;50.04;98510.97;5074234;28;20226;-70
2022/07/05 07:13:07;;;;;;;2.77;1.27;;;;;;;21.13;48.80;98507.16;5073558;28;20590;-70
2022/07/05 07:15:34;;;;;;;3.17;1.23;;;;;;;21.21;47.95;98503.91;5073807;28;20210;-70
2022/07/05 07:18:00;;;;;;;3.33;1.00;;;;;;;21.51;49.13;98509.16;5074082;28;20209;-69
2022/07/05 07:20:27;;;;;;;1.27;1.10;;;;;;;21.60;50.08;98507.50;5073115;28;20189;-70
2022/07/05 07:22:54;;;;;;;2.83;1.20;;;;;;;21.72;48.35;98505.31;5073687;28;20288;-70
2022/07/05 07:25:23;;;;;;;3.17;1.30;;;;;;;21.68;47.90;98510.44;5073946;28;20216;-70
2022/07/05 07:27:51;;;;;;;1.83;1.40;;;;;;;21.68;49.86;98509.63;5073196;28;20313;-70
2022/07/05 07:30:20;;;;;;;2.37;1.27;;;;;;;21.59;49.06;98511.28;5073903;28;20295;-70
2022/07/05 07:32:47;;;;;;;1.37;1.27;;;;;;;21.79;48.98;98516.66;5073510;28;20290;-70
2022/07/05 07:35:14;;;;;;;1.20;1.10;;;;;;;22.05;48.75;98510.78;5073693;28;20204;-70
2022/07/05 07:37:40;;;;;;;3.23;1.50;;;;;;;22.14;48.26;98519.09;5072911;28;20299;-70
2022/07/05 07:40:08;;;;;;;2.20;1.20;;;;;;;21.89;48.02;98511.97;5073132;28;20228;-70
2022/07/05 07:42:34;;;;;;;3.30;1.33;;;;;;;21.72;48.58;98521.56;5073141;28;20224;-70
2022/07/05 07:45:03;;;;;;;2.83;1.17;;;;;;;21.89;48.75;98524.72;5073213;28;20299;-70
2022/07/05 07:47:32;;;;;;;4.20;1.27;;;;;;;22.24;47.58;98521.78;5073273;28;20295;-70
2022/07/05 07:49:59;;;;;;;4.63;1.30;;;;;;;22.19;48.15;98524.50;5072878;28;20231;-69
2022/07/05 07:52:25;;;;;;;2.90;1.30;;;;;;;22.04;49.97;98522.72;5073210;28;20221;-70
2022/07/05 07:54:52;;;;;;;3.33;1.10;;;;;;;22.18;49.86;98523.69;5073431;28;20307;-69
2022/07/05 07:57:19;;;;;;;2.60;1.00;;;;;;;22.45;48.48;98525.91;5073215;28;20579;-69
2022/07/05 07:59:45;;;;;;;2.43;0.90;;;;;;;22.54;47.22;98524.25;5073316;28;20301;-70
2022/07/05 08:02:12;;;;;;;3.60;1.23;;;;;;;22.56;47.93;98522.88;5073049;28;20200;-71
2022/07/05 08:04:38;;;;;;;4.57;1.43;;;;;;;22.19;45.82;98522.59;5073257;28;20295;-71
2022/07/05 08:07:05;;;;;;;5.43;3.37;;;;;;;22.06;45.98;98527.84;5073366;28;20574;-71
2022/07/05 08:09:31;;;;;;;2.90;1.20;;;;;;;22.24;46.77;98524.47;5073156;28;20311;-71
2022/07/05 08:11:58;;;;;;;1.80;1.10;;;;;;;21.95;46.43;98523.56;5073113;28;20247;-71
2022/07/05 08:14:25;;;;;;;2.37;1.77;;;;;;;22.05;46.53;98520.78;5073181;28;20300;-71
2022/07/05 08:16:52;;;;;;;6.43;4.37;;;;;;;22.18;46.30;98520.16;5072965;28;20634;-71
2022/07/05 08:22:04;;;;;;;2.47;1.17;;;;;;;22.38;46.40;98528.16;5073120;28;20175;-71
2022/07/05 08:24:30;;;;;;;2.83;2.10;;;;;;;22.29;44.83;98533.34;5072594;28;20205;-71
2022/07/05 08:26:57;;;;;;;4.32;1.10;;;;;;;22.36;46.29;98519.50;5072914;28;20291;-71
2022/07/05 08:29:23;;;;;;;4.27;1.50;;;;;;;22.45;47.14;98520.50;5072541;28;20232;-71
2022/07/05 08:31:52;;;;;;;4.40;2.53;;;;;;;22.55;46.26;98525.84;5074193;28;20220;-70
2022/07/05 08:34:19;;;;;;;2.35;1.63;;;;;;;22.65;46.52;98528.50;5077127;28;20207;-69
2022/07/05 08:36:46;;;;;;;4.38;1.23;;;;;;;22.73;45.75;98533.28;5077018;28;20205;-71
2022/07/05 08:39:12;;;;;;;3.88;1.20;;;;;;;22.99;44.79;98516.50;5076959;28;20220;-71
2022/07/05 08:41:42;;;;;;;4.40;1.35;;;;;;;22.97;46.14;98521.38;5076580;28;20201;-71
2022/07/05 08:44:09;;;;;;;1.80;1.10;;;;;;;23.20;44.86;98515.19;5076461;28;20303;-71
2022/07/05 08:46:40;;;;;;;5.35;1.20;;;;;;;23.31;46.02;98522.13;5076472;28;20663;-70
2022/07/05 08:49:07;;;;;;;4.22;1.30;;;;;;;23.43;45.08;98521.72;5077478;28;20228;-70
2022/07/05 08:51:38;;;;;;;4.25;1.90;;;;;;;23.14;42.73;98518.22;5076829;28;20247;-71
2022/07/05 08:54:05;;;;;;;3.17;1.30;;;;;;;23.01;42.61;98511.59;5076618;28;20195;-70
2022/07/05 08:56:31;;;;;;;1.60;1.40;;;;;;;23.16;42.81;98510.63;5076586;28;20299;-71
2022/07/05 08:58:58;;;;;;;19.10;13.98;;;;;;;23.22;42.60;98512.19;5076211;28;20323;-70
2022/07/05 09:01:25;;;;;;;4.10;1.40;;;;;;;23.17;43.63;98513.03;5076547;28;20578;-70
2022/07/05 09:03:53;;;;;;;9.05;8.00;;;;;;;23.42;43.27;98512.75;5076169;28;20650;-71
2022/07/05 09:06:21;;;;;;;37.58;32.58;;;;;;;23.57;44.85;98519.91;5076503;28;20200;-71
2022/07/05 09:08:49;;;;;;;2.25;1.23;;;;;;;23.83;39.85;98519.28;5076145;28;20220;-71
2022/07/05 09:11:17;;;;;;;6.63;4.25;;;;;;;23.79;40.54;98514.72;5076179;28;20291;-71
2022/07/05 09:13:50;;;;;;;2.85;1.13;;;;;;;23.74;39.45;98517.53;5076155;28;20307;-71
2022/07/05 09:16:17;;;;;;;2.78;1.60;;;;;;;24.00;39.92;98518.78;5076081;28;20276;-71
2022/07/05 09:18:47;;;;;;;3.35;1.98;;;;;;;23.96;41.30;98521.28;5075710;28;20243;-71
2022/07/05 09:21:15;;;;;;;5.35;1.30;;;;;;;23.63;41.07;98521.44;5076019;28;20208;-71
2022/07/05 09:23:42;;;;;;;6.10;1.92;;;;;;;23.62;41.72;98522.56;5076102;28;20201;-71
2022/07/05 09:26:09;;;;;;;3.15;1.88;;;;;;;23.82;43.47;98514.94;5076569;28;20208;-71
2022/07/05 09:28:35;;;;;;;3.45;1.73;;;;;;;24.01;44.36;98528.56;5075801;28;20252;-71
2022/07/05 09:31:01;;;;;;;7.13;6.25;;;;;;;24.09;40.47;98523.28;5075805;28;20291;-71
2022/07/05 09:33:28;;;;;;;3.97;1.60;;;;;;;24.28;42.28;98523.28;5075587;28;20311;-71
2022/07/05 09:35:57;;;;;;;4.70;1.10;;;;;;;24.35;39.76;98531.84;5075350;28;20301;-71
2022/07/05 09:38:25;;;;;;;3.70;2.58;;;;;;;24.41;37.32;98527.94;5076181;28;20228;-71
2022/07/05 09:40:54;;;;;;;4.40;1.30;;;;;;;24.91;37.38;98527.09;5076129;28;20551;-71
2022/07/05 09:43:23;;;;;;;7.40;5.10;;;;;;;24.95;37.68;98528.13;5074572;28;20226;-71
2022/07/05 09:45:58;;;;;;;4.82;1.35;;;;;;;24.50;39.32;98526.16;5075294;28;20207;-71
2022/07/05 09:48:26;;;;;;;4.38;1.05;;;;;;;24.90;40.52;98530.94;5075174;28;20312;-71
2022/07/05 09:50:52;;;;;;;3.47;1.20;;;;;;;25.22;38.31;98526.25;5075384;28;20299;-70
2022/07/05 09:53:20;;;;;;;3.60;1.40;;;;;;;25.27;39.36;98526.16;5075032;28;20312;-71
2022/07/05 09:56:02;;;;;;;3.17;1.25;;;;;;;24.81;37.64;98528.09;5075151;28;20716;-71
2022/07/05 09:58:29;;;;;;;1.70;1.20;;;;;;;25.23;39.08;98527.06;5075423;28;20224;-70
2022/07/05 10:00:56;;;;;;;4.95;1.50;;;;;;;24.88;37.27;98519.56;5075324;28;20216;-71
2022/07/05 10:03:22;;;;;;;2.90;1.70;;;;;;;25.34;37.62;98520.31;5075229;28;20757;-70
2022/07/05 10:05:49;;;;;;;11.35;8.38;;;;;;;25.57;36.59;98522.84;5075224;28;20204;-71
2022/07/05 10:08:17;;;;;;;1.40;1.30;;;;;;;25.57;34.85;98525.56;5074780;28;20311;-70
2022/07/05 10:10:47;;;;;;;25.92;23.13;;;;;;;25.67;36.80;98525.34;5075178;28;20215;-70
2022/07/05 10:13:15;;;;;;;12.05;10.77;;;;;;;24.94;35.25;98521.88;5074921;28;20221;-70
2022/07/05 10:15:43;;;;;;;2.25;1.27;;;;;;;25.11;34.51;98519.38;5075039;28;20257;-71
2022/07/05 10:18:13;;;;;;;7.03;3.33;;;;;;;25.37;33.37;98522.44;5073462;28;20235;-70
2022/07/05 10:20:42;;;;;;;10.18;8.88;;;;;;;24.92;33.30;98529.53;5075233;28;20279;-70
2022/07/05 10:23:14;;;;;;;16.10;12.85;;;;;;;25.24;36.38;98520.50;5074835;28;20207;-70
2022/07/05 10:25:47;;;;;;;15.15;8.50;;;;;;;25.04;34.82;98520.88;5074791;28;20223;-70
2022/07/05 10:28:14;;;;;;;8.43;3.47;;;;;;;25.56;35.16;98526.66;5074548;28;20224;-71
2022/07/05 10:30:44;;;;;;;3.22;1.05;;;;;;;25.94;34.39;98524.50;5074614;28;20239;-70
2022/07/05 10:33:14;;;;;;;3.65;1.10;;;;;;;26.22;34.30;98517.84;5074431;28;20227;-70
2022/07/05 10:35:43;;;;;;;10.02;7.47;;;;;;;26.14;34.14;98518.63;5074365;28;20204;-70
2022/07/05 10:38:11;;;;;;;2.97;1.52;;;;;;;26.34;36.12;98524.41;5074788;28;20228;-70
2022/07/05 10:40:38;;;;;;;3.10;1.27;;;;;;;25.88;35.76;98526.50;5073930;28;20291;-70
2022/07/05 10:43:06;;;;;;;4.22;1.20;;;;;;;26.12;36.75;98520.81;5074194;28;20300;-70
2022/07/05 10:45:37;;;;;;;5.22;1.50;;;;;;;26.28;33.30;98520.16;5073351;28;20286;-70
2022/07/05 10:48:14;;;;;;;1.60;1.20;;;;;;;25.36;33.21;98509.94;5074444;28;20193;-71
2022/07/05 10:51:00;;;;;;;2.20;1.45;;;;;;;25.84;33.61;98511.91;5074605;28;20219;-71
2022/07/05 10:53:26;;;;;;;2.22;2.03;;;;;;;25.55;34.12;98507.91;5074097;28;20671;-71
2022/07/05 10:55:57;;;;;;;2.83;1.42;;;;;;;25.52;32.30;98512.06;5073916;28;20655;-72
2022/07/05 10:58:37;;;;;;;3.65;1.13;;;;;;;25.23;32.97;98508.00;5074104;28;20235;-71
2022/07/05 11:01:12;;;;;;;5.55;1.17;;;;;;;25.50;32.75;98505.28;5073990;28;20262;-72
2022/07/05 11:03:43;;;;;;;1.17;1.00;;;;;;;25.85;33.78;98508.06;5073640;28;20240;-71
2022/07/05 11:06:20;;;;;;;2.38;1.00;;;;;;;26.30;35.03;98519.84;5073703;28;20276;-71
2022/07/05 11:08:58;;;;;;;2.65;1.50;;;;;;;26.13;32.19;98511.53;5073444;28;20224;-71
2022/07/05 11:11:29;;;;;;;2.55;1.00;;;;;;;25.64;32.16;98508.81;5073699;28;20211;-72
2022/07/05 11:13:58;;;;;;;1.98;1.17;;;;;;;25.88;31.52;98512.09;5073698;28;20282;-71
2022/07/05 11:16:36;;;;;;;1.58;1.02;;;;;;;25.26;33.47;98523.72;5073662;28;20205;-72
2022/07/05 11:19:11;;;;;;;3.33;1.40;;;;;;;25.29;33.18;98518.50;5073369;28;20259;-71
2022/07/05 11:21:40;;;;;;;2.47;1.00;;;;;;;25.35;34.09;98521.94;5073739;28;20303;-71
2022/07/05 11:24:21;;;;;;;5.03;1.33;;;;;;;25.47;33.38;98525.75;5073285;28;20200;-71
2022/07/05 11:26:53;;;;;;;1.75;1.13;;;;;;;25.71;33.31;98520.91;5073331;28;20207;-71
2022/07/05 11:29:44;;;;;;;2.28;1.20;;;;;;;25.69;31.41;98519.59;5073616;28;20229;-71
2022/07/05 11:32:15;;;;;;;2.80;1.13;;;;;;;25.78;30.68;98521.28;5072935;28;20296;-71
2022/07/05 11:34:43;;;;;;;1.30;0.88;;;;;;;25.54;32.61;98514.44;5073433;28;20195;-71
2022/07/05 11:37:33;;;;;;;1.35;0.90;;;;;;;25.74;32.40;98509.38;5073235;28;20204;-72
2022/07/05 11:40:09;;;;;;;2.70;1.02;;;;;;;25.55;32.78;98526.97;5072963;28;20225;-70
2022/07/05 11:42:37;;;;;;;1.63;1.23;;;;;;;25.79;31.86;98513.94;5073082;28;20204;-71
2022/07/05 11:45:06;;;;;;;1.10;1.02;;;;;;;25.76;33.21;98506.34;5073074;28;20571;-71
2022/07/05 11:47:34;;;;;;;3.25;1.10;;;;;;;26.02;33.32;98504.72;5073354;28;20329;-71